createdAt,value
2017-08-23T00:00:40.056Z,93.50
2017-08-23T00:03:08.316Z,93.90
2017-08-23T00:05:36.613Z,93.80
2017-08-23T00:08:04.885Z,94.00
2017-08-23T00:10:33.202Z,94.10
2017-08-23T00:13:01.484Z,94.50
2017-08-23T00:15:29.752Z,94.60
2017-08-23T00:17:58.064Z,94.50
2017-08-23T00:20:26.356Z,94.80
2017-08-23T00:22:54.650Z,94.50
2017-08-23T00:25:22.921Z,94.50
2017-08-23T00:27:51.204Z,94.80
2017-08-23T00:30:19.510Z,94.70
2017-08-23T00:32:47.810Z,95.10
2017-08-23T00:35:16.101Z,95.10
2017-08-23T00:37:44.416Z,94.90
2017-08-23T00:40:12.685Z,95.00
2017-08-23T00:42:40.991Z,95.20
2017-08-23T00:45:09.261Z,95.10
2017-08-23T00:47:37.540Z,95.10
2017-08-23T00:50:05.867Z,95.20
2017-08-23T00:52:34.136Z,95.20
2017-08-23T00:55:02.403Z,95.40
2017-08-23T00:57:30.721Z,95.50
2017-08-23T00:59:58.993Z,95.70
2017-08-23T01:02:27.270Z,95.70
2017-08-23T01:04:55.581Z,96.20
2017-08-23T01:07:23.849Z,95.80
2017-08-23T01:09:52.157Z,96.10
2017-08-23T01:12:20.416Z,96.40
2017-08-23T01:14:48.737Z,96.30
2017-08-23T01:17:16.996Z,96.20
2017-08-23T01:19:45.269Z,96.30
2017-08-23T01:22:13.688Z,96.30
2017-08-23T01:24:41.959Z,96.40
2017-08-23T01:27:10.229Z,96.30
2017-08-23T01:29:47.424Z,96.40
2017-08-23T01:32:15.689Z,96.50
2017-08-23T01:34:43.952Z,96.40
2017-08-23T01:37:12.271Z,96.70
2017-08-23T01:39:40.542Z,96.50
2017-08-23T01:42:08.806Z,96.50
2017-08-23T01:44:37.099Z,96.30
2017-08-23T01:47:05.387Z,96.40
2017-08-23T01:49:33.683Z,96.50
2017-08-23T01:52:01.956Z,96.50
2017-08-23T01:54:30.305Z,96.40
2017-08-23T01:56:58.569Z,96.60
2017-08-23T01:59:26.832Z,96.40
2017-08-23T02:01:55.122Z,96.50
2017-08-23T02:04:23.388Z,96.60
2017-08-23T02:06:51.681Z,96.80
2017-08-23T02:09:19.934Z,96.70
2017-08-23T02:11:48.190Z,96.90
2017-08-23T02:14:16.491Z,97.10
2017-08-23T02:16:44.746Z,96.90
2017-08-23T02:19:13.036Z,96.90
2017-08-23T02:21:41.296Z,96.90
2017-08-23T02:24:09.584Z,97.10
2017-08-23T02:26:37.871Z,97.00
2017-08-23T02:29:06.127Z,96.90
2017-08-23T02:31:34.419Z,97.30
2017-08-23T02:34:02.680Z,97.50
2017-08-23T02:36:30.992Z,97.40
2017-08-23T02:38:59.254Z,97.40
2017-08-23T02:41:27.515Z,97.50
2017-08-23T02:43:55.819Z,97.60
2017-08-23T02:46:24.089Z,97.70
2017-08-23T02:48:52.345Z,97.80
2017-08-23T02:51:20.645Z,97.60
2017-08-23T02:53:48.905Z,97.60
2017-08-23T02:56:17.168Z,97.50
2017-08-23T02:58:45.495Z,97.80
2017-08-23T03:01:13.983Z,97.90
2017-08-23T03:03:42.247Z,98.10
2017-08-23T03:06:10.535Z,97.90
2017-08-23T03:08:38.803Z,98.10
2017-08-23T03:11:07.115Z,97.90
2017-08-23T03:13:35.376Z,97.90
2017-08-23T03:16:03.653Z,98.00
2017-08-23T03:18:31.969Z,97.90
2017-08-23T03:21:00.244Z,98.00
2017-08-23T03:23:28.514Z,98.40
2017-08-23T03:25:56.799Z,98.50
2017-08-23T03:28:25.070Z,98.60
2017-08-23T03:30:52.594Z,98.70
2017-08-23T03:33:20.890Z,98.50
2017-08-23T03:35:49.156Z,98.80
2017-08-23T03:38:17.444Z,98.60
2017-08-23T03:40:45.702Z,98.40
2017-08-23T03:43:13.995Z,98.40
2017-08-23T03:45:42.297Z,98.50
2017-08-23T03:48:10.560Z,98.90
2017-08-23T03:50:38.818Z,98.70
2017-08-23T03:53:07.113Z,98.70
2017-08-23T03:55:35.370Z,98.80
2017-08-23T03:58:03.631Z,98.90
2017-08-23T04:00:31.958Z,98.90
2017-08-23T04:03:00.228Z,98.90
2017-08-23T04:05:28.496Z,99.10
2017-08-23T04:07:56.788Z,99.20
2017-08-23T04:10:25.057Z,99.20
2017-08-23T04:12:53.357Z,99.30
2017-08-23T04:15:21.611Z,99.30
2017-08-23T04:17:49.906Z,99.20
2017-08-23T04:20:18.170Z,99.10
2017-08-23T04:22:46.419Z,99.10
2017-08-23T04:25:14.730Z,99.30
2017-08-23T04:27:42.996Z,99.60
2017-08-23T04:30:10.488Z,99.60
2017-08-23T04:32:38.787Z,99.40
2017-08-23T04:35:07.059Z,99.40
2017-08-23T04:37:35.380Z,99.70
2017-08-23T04:40:03.634Z,99.90
2017-08-23T04:42:31.927Z,99.70
2017-08-23T04:45:00.190Z,99.40
2017-08-23T04:47:28.483Z,99.40
2017-08-23T04:49:56.752Z,99.80
2017-08-23T04:52:25.046Z,99.90
2017-08-23T04:54:53.315Z,99.90
2017-08-23T04:57:20.811Z,99.90
2017-08-23T04:59:49.107Z,99.90
2017-08-23T05:02:17.408Z,99.90
2017-08-23T05:04:45.667Z,99.90
2017-08-23T05:07:13.984Z,99.90
2017-08-23T05:09:42.242Z,99.90
2017-08-23T05:12:10.507Z,99.90
2017-08-23T05:14:38.800Z,99.90
2017-08-23T05:17:07.059Z,99.90
2017-08-23T05:19:35.356Z,99.90
2017-08-23T05:22:03.635Z,99.90
2017-08-23T05:24:31.939Z,99.90
2017-08-23T05:27:00.206Z,99.90
2017-08-23T05:29:28.469Z,99.90
2017-08-23T05:31:56.771Z,99.90
2017-08-23T05:34:25.035Z,99.90
2017-08-23T05:36:53.304Z,99.90
2017-08-23T05:39:21.600Z,99.90
2017-08-23T05:41:49.863Z,99.90
2017-08-23T05:44:18.169Z,99.90
2017-08-23T05:46:46.441Z,99.90
2017-08-23T05:49:14.735Z,99.90
2017-08-23T05:51:43.040Z,99.90
2017-08-23T05:54:11.307Z,99.90
2017-08-23T05:56:39.578Z,99.90
2017-08-23T05:59:07.888Z,99.90
2017-08-23T06:01:36.150Z,99.90
2017-08-23T06:04:04.414Z,99.90
2017-08-23T06:06:32.711Z,99.90
2017-08-23T06:09:01.022Z,99.90
2017-08-23T06:11:29.293Z,99.90
2017-08-23T06:13:57.559Z,99.90
2017-08-23T06:16:25.863Z,99.90
2017-08-23T06:18:54.132Z,99.90
2017-08-23T06:21:22.400Z,99.90
2017-08-23T06:23:50.692Z,99.90
2017-08-23T06:26:18.959Z,99.90
2017-08-23T06:28:47.247Z,99.90
2017-08-23T06:31:15.524Z,99.90
2017-08-23T06:33:43.808Z,99.90
2017-08-23T06:36:12.115Z,99.90
2017-08-23T06:38:40.437Z,99.90
2017-08-23T06:41:08.695Z,99.90
2017-08-23T06:43:36.971Z,99.90
2017-08-23T06:46:05.272Z,99.90
2017-08-23T06:48:33.545Z,99.90
2017-08-23T06:51:01.882Z,99.90
2017-08-23T06:53:30.171Z,99.90
2017-08-23T06:55:58.432Z,99.50
2017-08-23T06:58:26.730Z,99.20
2017-08-23T07:00:54.996Z,99.90
2017-08-23T07:03:23.253Z,99.70
2017-08-23T07:05:51.549Z,99.20
2017-08-23T07:08:19.865Z,99.70
2017-08-23T07:10:48.138Z,99.90
2017-08-23T07:13:16.404Z,98.50
2017-08-23T07:15:44.740Z,98.60
2017-08-23T07:18:13.009Z,98.70
2017-08-23T07:20:41.273Z,97.90
2017-08-23T07:23:09.570Z,98.60
2017-08-23T07:25:37.835Z,97.80
2017-08-23T07:28:06.132Z,97.10
2017-08-23T07:30:34.424Z,97.50
2017-08-23T07:33:02.709Z,97.40
2017-08-23T07:35:30.996Z,97.90
2017-08-23T07:37:59.267Z,97.40
2017-08-23T07:40:27.612Z,97.50
2017-08-23T07:42:55.867Z,96.90
2017-08-23T07:45:24.131Z,97.60
2017-08-23T07:47:52.417Z,97.40
2017-08-23T07:50:20.687Z,96.70
2017-08-23T07:52:48.964Z,97.40
2017-08-23T07:55:17.261Z,96.20
2017-08-23T07:57:45.518Z,96.10
2017-08-23T08:00:13.778Z,96.40
2017-08-23T08:02:42.061Z,97.00
2017-08-23T08:05:10.364Z,96.10
2017-08-23T08:07:37.849Z,96.10
2017-08-23T08:10:06.102Z,95.70
2017-08-23T08:12:34.432Z,95.70
2017-08-23T08:15:02.685Z,95.40
2017-08-23T08:17:30.948Z,96.00
2017-08-23T08:19:59.252Z,95.80
2017-08-23T08:22:27.512Z,95.40
2017-08-23T08:24:55.805Z,94.40
2017-08-23T08:27:24.084Z,94.90
2017-08-23T08:29:52.369Z,94.60
2017-08-23T08:32:20.634Z,94.00
2017-08-23T08:34:48.943Z,94.50
2017-08-23T08:37:17.200Z,94.00
2017-08-23T08:39:45.447Z,94.80
2017-08-23T08:42:13.732Z,92.90
2017-08-23T08:44:41.984Z,93.10
2017-08-23T08:47:10.275Z,93.50
2017-08-23T08:49:38.535Z,92.30
2017-08-23T08:52:06.825Z,92.20
2017-08-23T08:54:35.085Z,92.50
2017-08-23T08:57:03.371Z,91.90
2017-08-23T08:59:31.624Z,92.80
2017-08-23T09:01:59.921Z,91.30
2017-08-23T09:04:28.179Z,90.80
2017-08-23T09:06:56.437Z,92.60
2017-08-23T09:09:24.724Z,92.10
2017-08-23T09:11:52.983Z,90.80
2017-08-23T09:14:21.285Z,91.30
2017-08-23T09:16:49.548Z,91.50
2017-08-23T09:19:17.883Z,91.40
2017-08-23T09:21:46.385Z,91.80
2017-08-23T09:24:14.653Z,91.00
2017-08-23T09:26:42.948Z,91.00
2017-08-23T09:29:11.205Z,90.60
2017-08-23T09:31:39.459Z,90.30
2017-08-23T09:34:07.756Z,90.10
2017-08-23T09:36:36.004Z,90.10
2017-08-23T09:39:04.252Z,89.60
2017-08-23T09:41:32.544Z,90.30
2017-08-23T09:44:00.843Z,85.10
2017-08-23T09:46:29.111Z,84.40
2017-08-23T09:48:57.360Z,88.60
2017-08-23T09:51:25.649Z,85.50
2017-08-23T09:53:53.908Z,86.20
2017-08-23T09:56:22.196Z,85.00
2017-08-23T09:58:50.444Z,82.80
2017-08-23T10:01:18.752Z,86.20
2017-08-23T10:03:47.044Z,85.30
2017-08-23T10:06:14.563Z,85.30
2017-08-23T10:08:42.861Z,84.10
2017-08-23T10:11:11.129Z,85.40
2017-08-23T10:13:39.394Z,85.20
2017-08-23T10:16:07.683Z,85.70
2017-08-23T10:18:35.959Z,80.50
2017-08-23T10:21:04.264Z,83.00
2017-08-23T10:23:32.538Z,83.70
2017-08-23T10:26:00.800Z,82.80
2017-08-23T10:28:29.104Z,77.50
2017-08-23T10:30:57.365Z,79.80
2017-08-23T10:33:25.651Z,79.50
2017-08-23T10:35:53.914Z,81.80
2017-08-23T10:38:22.209Z,76.90
2017-08-23T10:40:50.462Z,79.50
2017-08-23T10:43:18.725Z,81.20
2017-08-23T10:45:46.280Z,81.20
2017-08-23T10:48:14.533Z,80.60
2017-08-23T10:50:42.802Z,79.50
2017-08-23T10:53:11.093Z,76.40
2017-08-23T10:55:39.384Z,78.00
2017-08-23T10:58:07.652Z,80.30
2017-08-23T11:00:35.913Z,80.90
2017-08-23T11:03:04.227Z,78.20
2017-08-23T11:05:31.750Z,78.20
2017-08-23T11:07:59.286Z,81.40
2017-08-23T11:10:27.540Z,77.60
2017-08-23T11:12:55.807Z,76.10
2017-08-23T11:15:24.099Z,73.00
2017-08-23T11:17:52.389Z,74.00
2017-08-23T11:20:20.681Z,75.60
2017-08-23T11:22:48.944Z,73.70
2017-08-23T11:25:17.287Z,73.40
2017-08-23T11:27:45.545Z,70.00
2017-08-23T11:30:13.804Z,72.30
2017-08-23T11:32:42.092Z,68.60
2017-08-23T11:35:10.349Z,71.60
2017-08-23T11:37:38.633Z,72.00
2017-08-23T11:40:06.927Z,75.20
2017-08-23T11:42:35.182Z,75.00
2017-08-23T11:45:03.492Z,74.80
2017-08-23T11:47:31.759Z,76.20
2017-08-23T11:50:00.010Z,69.50
2017-08-23T11:52:28.293Z,72.20
2017-08-23T11:54:56.541Z,72.20
2017-08-23T11:57:24.828Z,73.90
2017-08-23T11:59:53.081Z,73.70
2017-08-23T12:02:21.430Z,72.80
2017-08-23T12:04:49.666Z,72.50
2017-08-23T12:07:17.921Z,70.70
2017-08-23T12:09:46.213Z,69.90
2017-08-23T12:12:14.470Z,70.60
2017-08-23T12:14:42.764Z,72.50
2017-08-23T12:17:11.037Z,70.20
2017-08-23T12:19:39.295Z,70.90
2017-08-23T12:22:07.597Z,71.80
2017-08-23T12:24:35.857Z,68.70
2017-08-23T12:27:04.178Z,69.30
2017-08-23T12:29:32.436Z,71.20
2017-08-23T12:32:00.784Z,67.80
2017-08-23T12:34:29.044Z,70.00
2017-08-23T12:36:57.302Z,71.00
2017-08-23T12:39:25.613Z,72.90
2017-08-23T12:41:54.048Z,71.40
2017-08-23T12:44:22.309Z,68.00
2017-08-23T12:46:50.607Z,67.40
2017-08-23T12:49:18.868Z,70.60
2017-08-23T12:51:47.540Z,65.20
2017-08-23T12:54:15.849Z,69.40
2017-08-23T12:56:44.118Z,69.10
2017-08-23T12:59:12.369Z,69.20
2017-08-23T13:01:40.661Z,67.80
2017-08-23T13:04:08.934Z,65.90
2017-08-23T13:06:37.217Z,62.30
2017-08-23T13:09:05.540Z,64.60
2017-08-23T13:11:33.796Z,68.60
2017-08-23T13:14:02.056Z,67.30
2017-08-23T13:16:30.366Z,65.00
2017-08-23T13:18:58.624Z,67.60
2017-08-23T13:21:26.884Z,66.40
2017-08-23T13:23:55.175Z,65.90
2017-08-23T13:26:23.436Z,62.00
2017-08-23T13:28:51.748Z,69.30
2017-08-23T13:31:20.016Z,65.00
2017-08-23T13:33:48.282Z,66.50
2017-08-23T13:36:16.564Z,67.60
2017-08-23T13:38:44.061Z,67.60
2017-08-23T13:41:12.364Z,67.90
2017-08-23T13:43:40.610Z,67.80
2017-08-23T13:46:08.861Z,66.20
2017-08-23T13:48:37.144Z,67.90
2017-08-23T13:51:05.397Z,61.20
2017-08-23T13:53:33.756Z,65.30
2017-08-23T13:56:02.017Z,60.50
2017-08-23T13:58:30.311Z,58.90
2017-08-23T14:00:58.564Z,62.10
2017-08-23T14:03:26.819Z,65.40
2017-08-23T14:05:55.126Z,60.50
2017-08-23T14:08:23.403Z,62.30
2017-08-23T14:10:51.654Z,62.50
2017-08-23T14:13:19.943Z,61.90
2017-08-23T14:15:48.197Z,60.40
2017-08-23T14:18:16.493Z,58.70
2017-08-23T14:20:44.750Z,62.10
2017-08-23T14:23:13.020Z,64.40
2017-08-23T14:25:41.312Z,62.50
2017-08-23T14:28:09.610Z,61.30
2017-08-23T14:30:37.962Z,62.50
2017-08-23T14:33:06.228Z,61.90
2017-08-23T14:35:34.525Z,62.50
2017-08-23T14:38:02.017Z,62.30
2017-08-23T14:40:30.321Z,59.90
2017-08-23T14:42:58.576Z,61.60
2017-08-23T14:45:26.874Z,62.60
2017-08-23T14:47:55.146Z,59.80
2017-08-23T14:50:23.452Z,60.80
2017-08-23T14:52:51.712Z,57.70
2017-08-23T14:55:19.985Z,61.90
2017-08-23T14:57:48.264Z,60.00
2017-08-23T15:00:16.520Z,61.50
2017-08-23T15:02:44.805Z,61.80
2017-08-23T15:05:13.113Z,60.10
2017-08-23T15:07:41.359Z,61.80
2017-08-23T15:10:09.639Z,63.20
2017-08-23T15:12:37.929Z,60.70
2017-08-23T15:15:05.423Z,60.60
2017-08-23T15:17:33.712Z,60.60
2017-08-23T15:20:01.973Z,59.40
2017-08-23T15:22:30.351Z,58.20
2017-08-23T15:24:58.636Z,58.40
2017-08-23T15:27:26.894Z,60.60
2017-08-23T15:29:55.224Z,60.40
2017-08-23T15:32:23.501Z,60.50
2017-08-23T15:34:51.766Z,63.10
2017-08-23T15:37:20.055Z,64.60
2017-08-23T15:39:48.474Z,65.30
2017-08-23T15:42:16.739Z,64.90
2017-08-23T15:44:45.002Z,66.80
2017-08-23T15:47:13.307Z,67.00
2017-08-23T15:49:41.563Z,66.70
2017-08-23T15:52:09.838Z,69.70
2017-08-23T15:54:38.124Z,69.20
2017-08-23T15:57:05.615Z,69.20
2017-08-23T15:59:33.901Z,72.20
2017-08-23T16:02:02.159Z,69.30
2017-08-23T16:04:30.464Z,71.60
2017-08-23T16:06:58.730Z,73.10
2017-08-23T16:09:27.041Z,71.70
2017-08-23T16:11:55.359Z,70.20
2017-08-23T16:14:23.604Z,72.70
2017-08-23T16:16:51.898Z,72.00
2017-08-23T16:19:20.176Z,73.80
2017-08-23T16:21:49.282Z,73.50
2017-08-23T16:24:17.564Z,74.20
2017-08-23T16:26:45.831Z,75.30
2017-08-23T16:29:14.147Z,73.80
2017-08-23T16:31:42.422Z,75.00
2017-08-23T16:34:10.681Z,74.50
2017-08-23T16:36:38.977Z,73.20
2017-08-23T16:39:07.268Z,74.70
2017-08-23T16:41:35.553Z,75.20
2017-08-23T16:44:03.837Z,73.60
2017-08-23T16:46:32.145Z,75.90
2017-08-23T16:49:00.406Z,75.80
2017-08-23T16:51:28.681Z,76.30
2017-08-23T16:53:56.969Z,77.20
2017-08-23T16:56:25.228Z,77.20
2017-08-23T16:58:53.523Z,78.80
2017-08-23T17:01:21.780Z,77.90
2017-08-23T17:03:50.079Z,79.70
2017-08-23T17:06:18.344Z,78.20
2017-08-23T17:08:46.607Z,79.30
2017-08-23T17:11:14.932Z,79.90
2017-08-23T17:13:43.199Z,78.90
2017-08-23T17:16:11.488Z,78.30
2017-08-23T17:18:39.031Z,77.50
2017-08-23T17:21:07.284Z,80.00
2017-08-23T17:23:35.540Z,78.00
2017-08-23T17:26:03.831Z,79.10
2017-08-23T17:28:32.093Z,78.40
2017-08-23T17:31:00.359Z,80.20
2017-08-23T17:33:28.668Z,80.40
2017-08-23T17:35:56.171Z,80.30
2017-08-23T17:38:24.453Z,79.30
2017-08-23T17:40:52.748Z,79.40
2017-08-23T17:43:21.027Z,79.40
2017-08-23T17:45:49.345Z,80.70
2017-08-23T17:48:17.610Z,80.60
2017-08-23T17:50:45.880Z,80.20
2017-08-23T17:53:14.183Z,81.40
2017-08-23T17:55:42.449Z,81.70
2017-08-23T17:58:10.737Z,80.90
2017-08-23T18:00:39.006Z,81.10
2017-08-23T18:03:07.332Z,81.90
2017-08-23T18:05:35.706Z,81.30
2017-08-23T18:08:04.049Z,82.20
2017-08-23T18:10:32.347Z,82.80
2017-08-23T18:13:00.647Z,81.10
2017-08-23T18:15:28.915Z,81.10
2017-08-23T18:17:57.178Z,81.20
2017-08-23T18:20:25.487Z,82.10
2017-08-23T18:22:53.734Z,81.70
2017-08-23T18:25:21.989Z,82.60
2017-08-23T18:27:50.275Z,82.40
2017-08-23T18:30:18.525Z,82.30
2017-08-23T18:32:46.820Z,81.50
2017-08-23T18:35:15.084Z,82.80
2017-08-23T18:37:43.359Z,82.70
2017-08-23T18:40:11.653Z,83.70
2017-08-23T18:42:39.917Z,84.00
2017-08-23T18:45:07.440Z,84.00
2017-08-23T18:47:35.693Z,84.30
2017-08-23T18:50:03.980Z,84.30
2017-08-23T18:52:32.265Z,83.80
2017-08-23T18:55:00.584Z,84.90
2017-08-23T18:57:28.867Z,85.10
2017-08-23T18:59:57.129Z,85.80
2017-08-23T19:02:25.422Z,86.30
2017-08-23T19:04:53.684Z,87.00
2017-08-23T19:07:21.972Z,87.30
2017-08-23T19:09:50.236Z,86.10
2017-08-23T19:12:18.546Z,86.80
2017-08-23T19:14:46.818Z,86.80
2017-08-23T19:17:15.089Z,87.40
2017-08-23T19:19:43.395Z,88.10
2017-08-23T19:22:11.659Z,87.60
2017-08-23T19:24:39.915Z,88.20
2017-08-23T19:27:07.457Z,88.20
2017-08-23T19:29:35.716Z,88.70
2017-08-23T19:32:03.973Z,89.30
2017-08-23T19:34:32.268Z,89.20
2017-08-23T19:37:00.528Z,90.00
2017-08-23T19:39:28.820Z,90.40
2017-08-23T19:41:57.078Z,90.50
2017-08-23T19:44:25.344Z,90.70
2017-08-23T19:46:53.624Z,90.60
2017-08-23T19:49:21.884Z,90.90
2017-08-23T19:51:50.180Z,90.60
2017-08-23T19:54:18.433Z,90.60
2017-08-23T19:56:45.924Z,90.60
2017-08-23T19:59:14.203Z,90.50
2017-08-23T20:01:41.687Z,90.50
2017-08-23T20:04:09.980Z,90.60
2017-08-23T20:06:38.245Z,90.80
2017-08-23T20:09:06.512Z,90.80
2017-08-23T20:11:34.043Z,90.80
2017-08-23T20:14:02.292Z,90.70
2017-08-23T20:16:30.542Z,91.10
2017-08-23T20:18:58.837Z,91.00
2017-08-23T20:21:27.088Z,91.60
2017-08-23T20:23:55.385Z,91.00
2017-08-23T20:26:23.645Z,91.20
2017-08-23T20:28:51.937Z,91.20
2017-08-23T20:31:20.220Z,91.30
2017-08-23T20:33:48.476Z,91.50
2017-08-23T20:36:16.802Z,91.50
2017-08-23T20:38:45.061Z,91.50
2017-08-23T20:41:13.324Z,91.30
2017-08-23T20:43:41.645Z,91.40
2017-08-23T20:46:09.911Z,91.70
2017-08-23T20:48:38.179Z,91.30
2017-08-23T20:51:06.489Z,91.30
2017-08-23T20:53:34.765Z,91.30
2017-08-23T20:56:03.028Z,91.60
2017-08-23T20:58:31.353Z,91.40
2017-08-23T21:00:59.607Z,91.60
2017-08-23T21:03:27.868Z,91.60
2017-08-23T21:05:57.105Z,91.80
2017-08-23T21:08:25.391Z,91.60
2017-08-23T21:10:53.667Z,91.90
2017-08-23T21:13:21.970Z,92.00
2017-08-23T21:15:50.250Z,91.80
2017-08-23T21:18:18.549Z,92.20
2017-08-23T21:20:46.826Z,92.10
2017-08-23T21:23:15.122Z,92.00
2017-08-23T21:25:42.652Z,92.00
2017-08-23T21:28:10.919Z,92.10
2017-08-23T21:30:38.420Z,92.10
2017-08-23T21:33:06.732Z,92.20
2017-08-23T21:35:34.990Z,92.80
2017-08-23T21:38:03.250Z,92.20
2017-08-23T21:40:31.552Z,92.20
2017-08-23T21:42:59.818Z,92.20
2017-08-23T21:45:28.133Z,92.60
2017-08-23T21:47:56.379Z,92.70
2017-08-23T21:50:24.646Z,92.60
2017-08-23T21:52:52.967Z,93.00
2017-08-23T21:55:21.232Z,92.70
2017-08-23T21:57:49.527Z,92.90
2017-08-23T22:00:17.827Z,92.80
2017-08-23T22:02:46.108Z,92.90
2017-08-23T22:05:14.415Z,93.10
2017-08-23T22:07:42.691Z,93.30
2017-08-23T22:10:10.964Z,93.50
2017-08-23T22:12:39.274Z,93.90
2017-08-23T22:15:07.536Z,94.20
2017-08-23T22:17:35.797Z,94.40
2017-08-23T22:20:04.100Z,94.40
2017-08-23T22:22:33.348Z,94.70
2017-08-23T22:25:01.655Z,95.00
2017-08-23T22:27:29.914Z,95.50
2017-08-23T22:29:58.183Z,96.00
2017-08-23T22:32:26.482Z,96.80
2017-08-23T22:34:54.749Z,97.40
2017-08-23T22:37:23.060Z,97.90
2017-08-23T22:39:51.328Z,98.00
2017-08-23T22:42:19.644Z,98.60
2017-08-23T22:44:47.909Z,98.90
2017-08-23T22:47:16.170Z,98.90
2017-08-23T22:49:44.471Z,99.40
2017-08-23T22:52:12.776Z,99.70
2017-08-23T22:54:40.272Z,99.70
2017-08-23T22:57:08.539Z,99.90
2017-08-23T22:59:36.842Z,99.90
2017-08-23T23:02:05.113Z,99.90
2017-08-23T23:04:33.420Z,99.90
2017-08-23T23:07:01.724Z,99.90
2017-08-23T23:09:30.024Z,99.90
2017-08-23T23:11:58.331Z,99.90
2017-08-23T23:14:26.595Z,99.90
2017-08-23T23:16:54.861Z,99.90
2017-08-23T23:19:23.151Z,99.90
2017-08-23T23:21:51.457Z,99.90
2017-08-23T23:24:19.726Z,99.90
2017-08-23T23:26:47.987Z,99.90
2017-08-23T23:29:16.291Z,99.90
2017-08-23T23:31:44.561Z,99.90
2017-08-23T23:34:12.869Z,99.90
2017-08-23T23:36:41.180Z,99.90
2017-08-23T23:39:09.450Z,99.90
2017-08-23T23:41:37.721Z,99.90
2017-08-23T23:44:06.040Z,99.90
2017-08-23T23:46:34.304Z,99.90
2017-08-23T23:49:02.570Z,99.90
2017-08-23T23:51:30.872Z,99.90
2017-08-23T23:53:59.151Z,99.90
2017-08-23T23:56:27.415Z,99.90
2017-08-23T23:58:55.715Z,99.90
